Birdham, United Kingdom
Current Conditions -  °F | °C
As of 7:50 PM on Monday 20 Oct 2014 (Local Time) from EGKA Reporting Station
Scattered Clouds Scattered Clouds  
Wind Chill: 59°   Ceiling: Unl
Heat Index: 59°   Visibility: 6mi
Dew Point: 54°   Wind: 15mph
Humidity: 82%   Direction: 250°WSW
Pressure: 29.97"   Gusts: NA
Location:  50.8°N, 0.83°W
Report Text: EGKA 201850Z 25013KT 9999 SCT025 15/12 Q1015
Loading
Personal Weather Stations






























Interactive Weather Map New forecast layout! Learn more

10-Day Weather Forecast

Advertisements
Track Severe Weather on mobile